createdAt,value
2022-08-07T00:00:41.676Z,96325.56
2022-08-07T00:03:09.406Z,96326.16
2022-08-07T00:05:37.176Z,96321.50
2022-08-07T00:08:04.979Z,96322.13
2022-08-07T00:10:34.935Z,96319.00
2022-08-07T00:13:17.440Z,96326.00
2022-08-07T00:15:52.296Z,96314.59
2022-08-07T00:18:24.933Z,96314.53
2022-08-07T00:20:57.730Z,96317.25
2022-08-07T00:23:30.065Z,96316.22
2022-08-07T00:26:01.633Z,96316.44
2022-08-07T00:28:34.526Z,96317.31
2022-08-07T00:31:16.550Z,96319.34
2022-08-07T00:33:47.732Z,96306.84
2022-08-07T00:36:15.383Z,96313.06
2022-08-07T00:38:44.239Z,96312.72
2022-08-07T00:41:14.615Z,96315.69
2022-08-07T00:43:59.388Z,96311.66
2022-08-07T00:46:30.352Z,96309.38
2022-08-07T00:49:02.713Z,96307.50
2022-08-07T00:51:57.695Z,96302.06
2022-08-07T00:54:19.596Z,96310.13
2022-08-07T00:56:49.757Z,96304.03
2022-08-07T00:59:20.145Z,96311.56
2022-08-07T01:01:48.530Z,96313.34
2022-08-07T01:04:24.806Z,96309.50
2022-08-07T01:06:52.316Z,96309.56
2022-08-07T01:10:04.157Z,96312.63
2022-08-07T01:12:28.250Z,96314.53
2022-08-07T01:15:01.019Z,96316.25
2022-08-07T01:17:29.834Z,96318.63
2022-08-07T01:20:01.462Z,96323.28
2022-08-07T01:22:29.752Z,96326.50
2022-08-07T01:24:58.095Z,96323.53
2022-08-07T01:27:25.495Z,96322.16
2022-08-07T01:30:01.242Z,96317.03
2022-08-07T01:32:29.750Z,96324.06
2022-08-07T01:34:58.896Z,96325.66
2022-08-07T01:37:26.935Z,96322.38
2022-08-07T01:40:02.079Z,96321.81
2022-08-07T01:42:39.377Z,96320.53
2022-08-07T01:45:18.416Z,96318.03
2022-08-07T01:48:20.223Z,96319.13
2022-08-07T01:50:43.055Z,96323.22
2022-08-07T01:53:20.883Z,96318.88
2022-08-07T01:55:58.460Z,96315.91
2022-08-07T01:58:33.037Z,96313.81
2022-08-07T02:01:09.975Z,96314.22
2022-08-07T02:03:53.867Z,96311.44
2022-08-07T02:06:31.867Z,96306.09
2022-08-07T02:09:04.506Z,96299.59
2022-08-07T02:12:02.830Z,96294.72
2022-08-07T02:14:35.626Z,96298.91
2022-08-07T02:17:04.010Z,96292.19
2022-08-07T02:20:04.452Z,96302.00
2022-08-07T02:22:25.764Z,96299.78
2022-08-07T02:24:55.409Z,96301.66
2022-08-07T02:27:23.902Z,96297.03
2022-08-07T02:29:54.489Z,96288.88
2022-08-07T02:32:26.963Z,96289.09
2022-08-07T02:34:58.007Z,96294.03
2022-08-07T02:37:28.244Z,96282.69
2022-08-07T02:40:31.222Z,96284.03
2022-08-07T02:42:51.475Z,96279.25
2022-08-07T02:45:58.980Z,96277.41
2022-08-07T02:48:15.336Z,96272.78
2022-08-07T02:50:47.460Z,96266.59
2022-08-07T02:53:17.798Z,96267.13
2022-08-07T02:56:02.260Z,96264.22
2022-08-07T02:58:34.157Z,96257.66
2022-08-07T03:01:03.349Z,96263.88
2022-08-07T03:03:49.227Z,96264.22
2022-08-07T03:06:32.029Z,96264.22
2022-08-07T03:09:02.313Z,96260.41
2022-08-07T03:11:32.823Z,96260.97
2022-08-07T03:14:06.690Z,96271.84
2022-08-07T03:16:34.707Z,96272.91
2022-08-07T03:19:01.999Z,96266.72
2022-08-07T03:21:33.034Z,96255.91
2022-08-07T03:24:20.195Z,96258.06
2022-08-07T03:26:58.786Z,96258.88
2022-08-07T03:29:37.748Z,96267.75
2022-08-07T03:32:13.059Z,96271.31
2022-08-07T03:34:47.021Z,96264.81
2022-08-07T03:37:27.430Z,96262.63
2022-08-07T03:39:59.443Z,96262.91
2022-08-07T03:42:42.440Z,96258.66
2022-08-07T03:45:11.998Z,96262.66
2022-08-07T03:47:48.162Z,96256.50
2022-08-07T03:50:23.359Z,96266.22
2022-08-07T03:52:52.879Z,96258.06
2022-08-07T03:55:20.764Z,96261.34
2022-08-07T03:58:33.262Z,96263.81
2022-08-07T04:00:38.684Z,96258.41
2022-08-07T04:03:13.870Z,96263.03
2022-08-07T04:05:42.541Z,96267.63
2022-08-07T04:08:21.177Z,96265.25
2022-08-07T04:10:54.562Z,96278.53
2022-08-07T04:14:09.307Z,96267.28
2022-08-07T04:16:31.530Z,96275.88
2022-08-07T04:19:04.111Z,96270.00
2022-08-07T04:21:39.896Z,96261.91
2022-08-07T04:24:33.648Z,96268.59
2022-08-07T04:27:05.027Z,96271.84
2022-08-07T04:29:45.684Z,96273.75
2022-08-07T04:32:33.880Z,96280.81
2022-08-07T04:35:11.120Z,96275.44
2022-08-07T04:37:52.705Z,96277.06
2022-08-07T04:40:29.600Z,96284.59
2022-08-07T04:43:01.986Z,96288.09
2022-08-07T04:45:57.562Z,96288.91
2022-08-07T04:48:38.177Z,96296.16
2022-08-07T04:51:09.197Z,96292.34
2022-08-07T04:54:05.632Z,96296.16
2022-08-07T04:58:12.162Z,96288.44
2022-08-07T05:00:09.919Z,96293.16
2022-08-07T05:02:43.465Z,96295.28
2022-08-07T05:05:53.291Z,96287.56
2022-08-07T05:08:58.887Z,96280.09
2022-08-07T05:11:26.100Z,96290.69
2022-08-07T05:14:52.111Z,96281.91
2022-08-07T05:17:05.964Z,96290.34
2022-08-07T05:19:44.877Z,96284.47
2022-08-07T05:22:19.092Z,96288.44
2022-08-07T05:24:57.290Z,96280.59
2022-08-07T05:28:03.068Z,96283.00
2022-08-07T05:30:16.739Z,96279.31
2022-08-07T05:32:59.586Z,96285.59
2022-08-07T05:35:33.203Z,96278.56
2022-08-07T05:38:09.116Z,96280.91
2022-08-07T05:40:50.700Z,96286.72
2022-08-07T05:43:19.581Z,96287.31
2022-08-07T05:46:07.005Z,96290.38
2022-08-07T05:48:34.452Z,96281.13
2022-08-07T05:51:03.889Z,96292.72
2022-08-07T05:54:12.183Z,96289.94
2022-08-07T05:56:29.906Z,96289.16
2022-08-07T05:58:59.884Z,96283.59
2022-08-07T06:01:35.719Z,96286.50
2022-08-07T06:04:05.058Z,96288.09
2022-08-07T06:06:38.309Z,96295.13
2022-08-07T06:09:15.232Z,96289.19
2022-08-07T06:11:45.747Z,96290.59
2022-08-07T06:14:20.974Z,96298.28
2022-08-07T06:16:56.423Z,96293.69
2022-08-07T06:19:47.861Z,96293.41
2022-08-07T06:22:23.288Z,96293.50
2022-08-07T06:25:01.240Z,96288.88
2022-08-07T06:28:00.636Z,96302.97
2022-08-07T06:30:35.191Z,96296.44
2022-08-07T06:33:15.762Z,96289.06
2022-08-07T06:36:06.264Z,96297.84
2022-08-07T06:38:35.106Z,96295.44
2022-08-07T06:41:06.964Z,96293.63
2022-08-07T06:43:39.481Z,96296.19
2022-08-07T06:46:14.517Z,96296.25
2022-08-07T06:48:44.659Z,96294.94
2022-08-07T06:51:31.273Z,96305.09
2022-08-07T06:55:29.206Z,96294.06
2022-08-07T06:56:53.729Z,96291.38
2022-08-07T07:00:12.289Z,96286.09
2022-08-07T07:02:48.777Z,96296.47
2022-08-07T07:05:07.922Z,96293.72
2022-08-07T07:07:59.797Z,96290.22
2022-08-07T07:10:33.468Z,96289.44
2022-08-07T07:13:14.495Z,96293.19
2022-08-07T07:15:44.458Z,96293.53
2022-08-07T07:18:46.874Z,96287.63
2022-08-07T07:21:40.532Z,96293.28
2022-08-07T07:24:17.532Z,96291.81
2022-08-07T07:26:49.602Z,96286.53
2022-08-07T07:29:40.354Z,96290.03
2022-08-07T07:32:09.530Z,96294.31
2022-08-07T07:34:39.628Z,96279.75
2022-08-07T07:37:22.181Z,96288.34
2022-08-07T07:39:57.744Z,96281.88
2022-08-07T07:42:32.829Z,96281.22
2022-08-07T07:45:02.052Z,96276.41
2022-08-07T07:47:30.287Z,96273.22
2022-08-07T07:50:33.945Z,96273.84
2022-08-07T07:53:06.059Z,96265.00
2022-08-07T07:55:57.707Z,96271.97
2022-08-07T07:58:30.037Z,96273.22
2022-08-07T08:00:57.982Z,96268.41
2022-08-07T08:04:09.773Z,96280.88
2022-08-07T08:06:14.213Z,96265.06
2022-08-07T08:08:43.026Z,96259.09
2022-08-07T08:11:16.317Z,96257.59
2022-08-07T08:13:58.729Z,96263.56
2022-08-07T08:16:50.466Z,96257.22
2022-08-07T08:20:16.092Z,96253.91
2022-08-07T08:22:32.562Z,96252.88
2022-08-07T08:25:27.002Z,96249.38
2022-08-07T08:28:11.443Z,96249.00
2022-08-07T08:30:51.541Z,96237.50
2022-08-07T08:33:24.646Z,96242.81
2022-08-07T08:35:57.437Z,96241.00
2022-08-07T08:38:35.425Z,96245.28
2022-08-07T08:41:11.987Z,96247.38
2022-08-07T08:43:55.894Z,96241.53
2022-08-07T08:46:34.185Z,96241.13
2022-08-07T08:49:10.416Z,96239.03
2022-08-07T08:52:12.487Z,96238.19
2022-08-07T08:54:47.504Z,96240.09
2022-08-07T08:57:25.850Z,96242.72
2022-08-07T09:00:04.341Z,96240.34
2022-08-07T09:02:41.903Z,96243.84
2022-08-07T09:05:37.471Z,96237.66
2022-08-07T09:08:05.529Z,96240.13
2022-08-07T09:10:37.699Z,96237.72
2022-08-07T09:13:14.638Z,96233.84
2022-08-07T09:16:24.457Z,96233.16
2022-08-07T09:18:58.746Z,96232.81
2022-08-07T09:21:58.141Z,96234.84
2022-08-07T09:24:54.980Z,96239.06
2022-08-07T09:27:28.777Z,96240.81
2022-08-07T09:30:08.473Z,96240.22
2022-08-07T09:32:54.369Z,96234.63
2022-08-07T09:36:04.272Z,96224.47
2022-08-07T09:38:39.212Z,96224.84
2022-08-07T09:41:14.061Z,96231.69
2022-08-07T09:44:05.585Z,96219.31
2022-08-07T09:47:50.933Z,96222.44
2022-08-07T09:50:00.531Z,96227.81
2022-08-07T09:52:51.836Z,96217.56
2022-08-07T09:55:29.335Z,96211.25
2022-08-07T09:58:32.491Z,96207.56
2022-08-07T10:01:52.123Z,96207.50
2022-08-07T10:04:28.243Z,96208.56
2022-08-07T10:07:25.939Z,96211.56
2022-08-07T10:10:03.003Z,96205.22
2022-08-07T10:12:33.894Z,96199.53
2022-08-07T10:15:26.264Z,96197.53
2022-08-07T10:18:08.435Z,96191.63
2022-08-07T10:20:54.655Z,96186.81
2022-08-07T10:24:05.192Z,96193.25
2022-08-07T10:26:34.172Z,96185.94
2022-08-07T10:29:10.343Z,96177.16
2022-08-07T10:31:49.632Z,96176.97
2022-08-07T10:34:27.377Z,96175.38
2022-08-07T10:37:12.306Z,96176.72
2022-08-07T10:40:05.533Z,96169.03
2022-08-07T10:42:38.583Z,96163.88
2022-08-07T10:45:57.624Z,96170.25
2022-08-07T10:48:11.893Z,96160.47
2022-08-07T10:51:01.720Z,96157.72
2022-08-07T10:53:44.450Z,96158.88
2022-08-07T10:56:30.119Z,96155.81
2022-08-07T10:59:21.119Z,96149.50
2022-08-07T11:02:05.287Z,96155.97
2022-08-07T11:04:50.417Z,96151.28
2022-08-07T11:07:58.982Z,96163.59
2022-08-07T11:10:38.870Z,96157.91
2022-08-07T11:13:16.770Z,96148.06
2022-08-07T11:16:10.000Z,96134.59
2022-08-07T11:18:42.370Z,96143.66
2022-08-07T11:21:32.089Z,96148.38
2022-08-07T11:24:04.060Z,96132.81
2022-08-07T11:26:49.890Z,96134.69
2022-08-07T11:29:41.750Z,96132.28
2022-08-07T11:32:15.126Z,96129.28
2022-08-07T11:35:01.224Z,96132.16
2022-08-07T11:38:09.970Z,96132.69
2022-08-07T11:40:40.912Z,96115.38
2022-08-07T11:43:41.213Z,96123.16
2022-08-07T11:46:17.516Z,96102.81
2022-08-07T11:49:50.606Z,96108.88
2022-08-07T11:51:51.219Z,96116.69
2022-08-07T11:54:30.378Z,96104.91
2022-08-07T11:57:03.206Z,96108.13
2022-08-07T12:00:10.683Z,96109.69
2022-08-07T12:02:31.697Z,96100.03
2022-08-07T12:04:58.768Z,96094.44
2022-08-07T12:07:39.036Z,96092.97
2022-08-07T12:10:15.485Z,96101.66
2022-08-07T12:12:46.457Z,96101.66
2022-08-07T12:15:17.232Z,96091.25
2022-08-07T12:18:29.916Z,96093.22
2022-08-07T12:21:01.963Z,96088.34
2022-08-07T12:24:05.860Z,96098.59
2022-08-07T12:26:50.454Z,96087.13
2022-08-07T12:29:37.116Z,96094.81
2022-08-07T12:32:12.126Z,96092.66
2022-08-07T12:34:40.608Z,96089.75
2022-08-07T12:37:16.546Z,96092.13
2022-08-07T12:39:50.865Z,96089.00
2022-08-07T12:42:27.737Z,96089.69
2022-08-07T12:44:57.937Z,96076.97
2022-08-07T12:47:30.687Z,96085.31
2022-08-07T12:50:05.157Z,96077.34
2022-08-07T12:52:52.381Z,96067.00
2022-08-07T12:55:41.434Z,96077.66
2022-08-07T12:58:28.201Z,96072.25
2022-08-07T13:01:05.786Z,96065.78
2022-08-07T13:04:02.597Z,96068.22
2022-08-07T13:07:00.604Z,96073.25
2022-08-07T13:10:20.542Z,96073.59
2022-08-07T13:12:44.477Z,96071.81
2022-08-07T13:15:34.584Z,96065.59
2022-08-07T13:18:26.762Z,96049.94
2022-08-07T13:21:05.035Z,96060.19
2022-08-07T13:24:03.882Z,96059.44
2022-08-07T13:26:49.146Z,96047.72
2022-08-07T13:29:21.683Z,96036.16
2022-08-07T13:32:23.765Z,96045.75
2022-08-07T13:34:56.576Z,96033.78
2022-08-07T13:37:28.142Z,96035.97
2022-08-07T13:40:36.633Z,96027.88
2022-08-07T13:43:02.340Z,96028.13
2022-08-07T13:46:11.455Z,96020.09
2022-08-07T13:48:27.779Z,96018.47
2022-08-07T13:51:02.699Z,96024.78
2022-08-07T13:54:00.537Z,96031.00
2022-08-07T13:56:36.202Z,96019.63
2022-08-07T13:59:12.170Z,96015.47
2022-08-07T14:01:59.163Z,96011.28
2022-08-07T14:04:35.825Z,96010.97
2022-08-07T14:07:09.258Z,96008.13
2022-08-07T14:10:12.340Z,96008.38
2022-08-07T14:12:58.667Z,96015.97
2022-08-07T14:15:35.024Z,96016.34
2022-08-07T14:18:23.663Z,96016.75
2022-08-07T14:20:54.675Z,96006.50
2022-08-07T14:23:31.683Z,96006.59
2022-08-07T14:26:30.409Z,96011.66
2022-08-07T14:29:06.058Z,96001.53
2022-08-07T14:31:42.468Z,96006.66
2022-08-07T14:34:11.882Z,96003.31
2022-08-07T14:36:56.235Z,96000.13
2022-08-07T14:40:17.300Z,96008.53
2022-08-07T14:42:18.321Z,96005.72
2022-08-07T14:44:52.305Z,96000.19
2022-08-07T14:47:20.064Z,96003.03
2022-08-07T14:52:37.694Z,96011.78
